Rochester, NY

9:54 PM EDT on July 30, 2015 (GMT -0400)
APRSWXNET | | Change Station
CLOSE
Current Station
Personal Weather Station
Location: Rochester, NY
Elevation: 518 ft
Nearby Weather Stations

Elev 518 ft 43.18 °N, 77.55 °W | Updated 15 minutes ago

Partly Cloudy
Partly Cloudy
76.0 °F
Feels Like 78 °F
N
6.0
Wind Variable Wind from West
Gusts 15.0 mph

Today
High -- | Low -- °F
--% Chance of Precip.
Yesterday
High -- | Low -- °F
Precip. -- in
5:58 AM 8:34 PM
Full, 100% visible
Pressure 29.85 in
Visibility 10.0 miles
Clouds Few 5000 ft
Heat Index 78 °F
Dew Point 63.0 °F
Humidity 65%
Rainfall in
Snow Depth Not available.
UV 0 out of 12
Pollen 6.30 out of 12
Air Quality Not available.
Flu Activity Not available.
METAR KROC 310054Z 25009KT 10SM FEW050 24/16 A2985 RMK AO2 SLP108 T02440161

More Conditions Fewer Conditions

Pressure 29.85 in
Visibility 10.0 miles
Clouds Few 5000 ft
Heat Index 78 °F
Dew Point 63.0 °F
Humidity 65%
Rainfall in
Snow Depth Not available.
UV 0 out of 12
Pollen 6.30 out of 12
Air Quality Not available.
Flu Activity Not available.
METAR KROC 310054Z 25009KT 10SM FEW050 24/16 A2985 RMK AO2 SLP108 T02440161

More Conditions Fewer Conditions

10-Day Weather Forecast

×

Almanac

Astronomy

Jul. 30, 2015 Rise Set
Actual Time
Civil Twilight
Nautical Twilight
Astronomical Twilight
Moon
Length of Visible Light
Length of Day
Tomorrow will be .
, % of the Moon is Illuminated

Today's Extremes

State Highs State Lows

Community

WunderPhotos

Upload Photos

1,842,568 photos uploaded!

WunderBlogs® & News

Nearby

Air Quality

  Air Quality AQ Index Pollutant
Not available.

Snow Depth

Station Depth Elevation

Earthquake Activity

City Distance Mag. Time & Date
Minimum magnitude displayed is 2.5.

Coastal Water Temperatures

Place Temperature

Stations

Nearby Weather Stations

Station Location Temp. Windchill Dew Point Humidity Wind Precip. Elev Updated Type